Alegrete, Brazil
Current Conditions -  °F | °C
As of 7:00 PM on Wednesday 22 Oct 2014 (Local Time) from SBUG Reporting Station
Clear Clear  
Wind Chill: 82°   Ceiling: Unl
Heat Index: 83°   Visibility: 6mi
Dew Point: 61°   Wind: 9mph
Humidity: 48%   Direction: 60°ENE
Pressure: 29.97"   Gusts: NA
Location:  29.78°S, 55.79°W
Report Text: SBUG 222100Z 06008KT CAVOK 28/16 Q1015
Loading
Personal Weather Stations






























Interactive Weather Map
Tropical Storm Tracking
New forecast layout! Learn more

10-Day Weather Forecast

Advertisements
Track Severe Weather on mobile